Home > Products > Valid Products > MTR

000
SAUS44 KEWX 010352
MTRATT
METAR KATT 010351Z AUTO VRB06KT 10SM CLR 26/21 A2981 RMK AO2 SLP082
T02610211





000
SAUS44 KEWX 010252
MTRATT
METAR KATT 010251Z AUTO 14006KT 10SM CLR 27/20 A2981 RMK AO2 SLP081
T02670200 51010





000
SAUS44 KEWX 010152
MTRATT
METAR KATT 010151Z AUTO 13003KT 10SM CLR 27/20 A2980 RMK AO2 SLP079
T02720200





000
SAUS44 KEWX 010052
MTRATT
METAR KATT 010051Z AUTO 12004KT 10SM CLR 28/20 A2979 RMK AO2 SLP076
T02830200





000
SAUS44 KEWX 302352
MTRATT
METAR KATT 302351Z AUTO VRB05KT 10SM CLR 29/19 A2978 RMK AO2 SLP072
T02940194 10322 20294 55005





000
SAUS44 KEWX 302252
MTRATT
METAR KATT 302251Z AUTO 12004KT 10SM CLR 30/19 A2978 RMK AO2 SLP072
T03000194





000
SAUS44 KEWX 302153
MTRATT
METAR KATT 302151Z AUTO VRB04KT 10SM CLR 32/19 A2978 RMK AO2 SLP072
T03170189





000
SAUS44 KEWX 302052
MTRATT
METAR KATT 302051Z AUTO 00000KT 10SM SCT050 31/19 A2979 RMK AO2
SLP077 T03110194 56030





000
SAUS44 KEWX 301952
MTRATT
METAR KATT 301951Z AUTO 00000KT 10SM CLR 31/19 A2982 RMK AO2 SLP085
T03110189 $





000
SAUS44 KEWX 301852
MTRATT
METAR KATT 301851Z AUTO VRB03KT 10SM BKN049 31/19 A2985 RMK AO2
SLP096 T03110189 $





000
SAUS44 KEWX 301752
MTRATT
METAR KATT 301751Z AUTO VRB03KT 10SM FEW040 31/19 A2988 RMK AO2
SLP107 T03060189 10306 20183 58010





000
SAUS44 KEWX 301652
MTRATT
METAR KATT 301651Z AUTO 00000KT 10SM FEW034 28/20 A2990 RMK AO2
SLP113 T02830200





000
SAUS44 KEWX 301552
MTRATT
METAR KATT 301551Z AUTO 00000KT 10SM CLR 27/20 A2991 RMK AO2 SLP117
T02720200





000
SAUS44 KEWX 301452
MTRATT
METAR KATT 301451Z AUTO 00000KT 10SM CLR 26/19 A2992 RMK AO2 SLP118
T02560189 51004





000
SAUS44 KEWX 301352
MTRATT
METAR KATT 301351Z AUTO 00000KT 10SM CLR 22/18 A2991 RMK AO2 SLP118
T02220183





000
SAUS44 KEWX 301252
MTRATT
METAR KATT 301251Z AUTO 00000KT 10SM CLR 19/17 A2991 RMK AO2 SLP118
T01890172





000
SAUS44 KEWX 301152
MTRATT
METAR KATT 301151Z AUTO 00000KT 10SM CLR 19/17 A2990 RMK AO2 SLP115
T01890172 10222 20183 53002





000
SAUS44 KEWX 301052
MTRATT
METAR KATT 301051Z AUTO 00000KT 10SM CLR 18/17 A2990 RMK AO2 SLP112
T01830172





000
SAUS44 KEWX 300952
MTRATT
METAR KATT 300951Z AUTO 00000KT 10SM CLR 19/17 A2989 RMK AO2 SLP111
T01890172





000
SAUS44 KEWX 300852
MTRATT
METAR KATT 300851Z AUTO 00000KT 10SM CLR 19/17 A2990 RMK AO2 SLP112
T01940172 58001





000
SAUS44 KEWX 300753
MTRATT
METAR KATT 300751Z AUTO 00000KT 10SM FEW100 21/17 A2991 RMK AO2
SLP115 T02060172





000
SAUS44 KEWX 300652
MTRATT
METAR KATT 300651Z AUTO 00000KT 10SM CLR 22/17 A2990 RMK AO2 SLP114
T02170172





000
SAUS44 KEWX 300552
MTRATT
METAR KATT 300551Z AUTO 00000KT 10SM CLR 22/18 A2990 RMK AO2 SLP113
T02170178 10289 20217 403170194 58002





000
SAUS44 KEWX 300453
MTRATT
METAR KATT 300451Z AUTO 00000KT 10SM CLR 22/17 A2991 RMK AO2 SLP117
T02220172





000
SAUS44 KEWX 300352
MTRATT
METAR KATT 300351Z AUTO 00000KT 10SM CLR 24/17 A2991 RMK AO2 SLP115
T02390172





000
SAUS44 KEWX 300253
MTRATT
METAR KATT 300251Z AUTO 00000KT 10SM CLR 25/17 A2991 RMK AO2 SLP116
T02500167 55000





000
SAUS44 KEWX 300152
MTRATT
METAR KATT 300151Z AUTO 09003KT 10SM CLR 26/17 A2990 RMK AO2 SLP114
T02560172





000
SAUS44 KEWX 300052
MTRATT
METAR KATT 300051Z AUTO 12004KT 10SM CLR 27/17 A2990 RMK AO2 SLP115
T02720172





000
SAUS44 KEWX 292352
MTRATT
METAR KATT 292351Z AUTO 00000KT 10SM CLR 29/16 A2991 RMK AO2 SLP116
T02890161 10317 20289 55003





000
SAUS44 KEWX 292252
MTRATT
METAR KATT 292251Z AUTO VRB03KT 10SM SCT070 31/17 A2990 RMK AO2
SLP113 T03060167





000
SAUS44 KEWX 292152
MTRATT
METAR KATT 292151Z AUTO VRB04KT 10SM SCT065 30/17 A2991 RMK AO2
SLP115 T03000172





000
SAUS44 KEWX 292052
MTRATT
METAR KATT 292051Z AUTO 08003KT 10SM SCT060 30/17 A2992 RMK AO2
SLP118 T03000167 56023





000
SAUS44 KEWX 291952
MTRATT
METAR KATT 291951Z AUTO 08005KT 10SM FEW055 31/17 A2994 RMK AO2
SLP124 T03110172





000
SAUS44 KEWX 291852
MTRATT
METAR KATT 291851Z AUTO VRB03KT 10SM CLR 30/17 A2996 RMK AO2 SLP132
T03000172





000
SAUS44 KEWX 291753
MTRATT
METAR KATT 291751Z AUTO VRB04KT 10SM CLR 30/18 A2999 RMK AO2 SLP141
T03000183 10300 20194 58010





000
SAUS44 KEWX 291652
MTRATT
METAR KATT 291651Z AUTO VRB03KT 10SM CLR 28/19 A3001 RMK AO2 SLP149
T02780189





000
SAUS44 KEWX 291554 COR
MTRATT
METAR KATT 291551Z AUTO 09004KT 10SM FEW023 27/20 A3002 RMK AO2
SLP153 T02670200





000
SAUS44 KEWX 291452
MTRATT
METAR KATT 291451Z AUTO 00000KT 10SM CLR 25/19 A3002 RMK AO2 SLP154
T02500189 51009





000
SAUS44 KEWX 291352
MTRATT
METAR KATT 291351Z AUTO VRB03KT 10SM CLR 23/17 A3001 RMK AO2 SLP152
T02280172





000
SAUS44 KEWX 291252
MTRATT
METAR KATT 291251Z AUTO 00000KT 10SM CLR 20/18 A3000 RMK AO2 SLP149
T02000178





000
SAUS44 KEWX 291153
MTRATT
METAR KATT 291151Z AUTO 00000KT 10SM CLR 19/18 A2999 RMK AO2 SLP146
T01940178 10239 20194 53006





000
SAUS44 KEWX 291052
MTRATT
METAR KATT 291051Z AUTO 00000KT 10SM CLR 19/18 A2998 RMK AO2 SLP141
T01940178





000
SAUS44 KEWX 290952
MTRATT
METAR KATT 290951Z AUTO 00000KT 10SM CLR 20/18 A2997 RMK AO2 SLP138
T02000183





000
SAUS44 KEWX 290852
MTRATT
METAR KATT 290851Z AUTO 00000KT 10SM CLR 21/18 A2998 RMK AO2 SLP138
T02110183 58002





000
SAUS44 KEWX 290752
MTRATT
METAR KATT 290751Z AUTO 00000KT 10SM CLR 22/18 A2998 RMK AO2 SLP140
T02220183





000
SAUS44 KEWX 290652
MTRATT
METAR KATT 290651Z AUTO 03003KT 10SM CLR 23/18 A2998 RMK AO2 SLP139
T02280183





000
SAUS44 KEWX 290553
MTRATT
METAR KATT 290551Z AUTO 03003KT 10SM CLR 23/18 A2998 RMK AO2 SLP140
T02330183 10283 20233 403110189 58005





000
SAUS44 KEWX 290452
MTRATT
METAR KATT 290451Z AUTO 03003KT 10SM CLR 24/18 A2999 RMK AO2 SLP142
T02440178





000
SAUS44 KEWX 290353
MTRATT
METAR KATT 290351Z AUTO 03003KT 10SM CLR 24/18 A2999 RMK AO2 SLP144
T02440178





000
SAUS44 KEWX 290252
MTRATT
METAR KATT 290251Z AUTO 00000KT 10SM OVC090 25/18 A3000 RMK AO2
SLP146 T02500183 51010





000
SAUS44 KEWX 290153
MTRATT
METAR KATT 290151Z AUTO 00000KT 10SM BKN090 25/18 A2999 RMK AO2
SLP145 T02500178





000
SAUS44 KEWX 290053
MTRATT
METAR KATT 290051Z AUTO 00000KT 10SM CLR 26/17 A2998 RMK AO2 SLP141
T02610167





000
SAUS44 KEWX 282353
MTRATT
METAR KATT 282351Z AUTO VRB03KT 10SM FEW085 28/17 A2996 RMK AO2
SLP136 T02830167 10311 20278 55001





000
SAUS44 KEWX 282252
MTRATT
METAR KATT 282251Z AUTO VRB03KT 10SM FEW080 30/17 A2996 RMK AO2
SLP133 T03000167





000
SAUS44 KEWX 282152
MTRATT
METAR KATT 282151Z AUTO VRB03KT 10SM FEW060 31/17 A2996 RMK AO2
SLP132 T03060167





000
SAUS44 KEWX 282052
MTRATT
METAR KATT 282051Z AUTO VRB03KT 10SM SCT055 30/17 A2997 RMK AO2
SLP137 T03000167 56024





000
SAUS44 KEWX 281952
MTRATT
METAR KATT 281951Z AUTO VRB03KT 10SM FEW049 OVC085 30/18 A2999 RMK
AO2 SLP143 T03000178





000
SAUS44 KEWX 281852
MTRATT
METAR KATT 281851Z AUTO VRB04KT 10SM FEW045 OVC080 28/17 A3001 RMK
AO2 SLP151 T02830172





000
SAUS44 KEWX 281752
MTRATT
METAR KATT 281751Z AUTO VRB05KT 10SM SCT041 SCT049 OVC085 28/18
A3004 RMK AO2 SLP161 T02780178 10278 20189 58008





000
SAUS44 KEWX 281652
MTRATT
METAR KATT 281651Z AUTO 36006KT 10SM SCT036 BKN075 27/18 A3005 RMK
AO2 SLP167 T02720183





000
SAUS44 KEWX 281552
MTRATT
METAR KATT 281551Z AUTO 04006KT 10SM FEW030 SCT075 26/19 A3006 RMK
AO2 SLP169 T02610189





000
SAUS44 KEWX 281452
MTRATT
METAR KATT 281451Z AUTO VRB04KT 10SM BKN080 24/19 A3006 RMK AO2
SLP170 T02390194 51014





000
SAUS44 KEWX 281353
MTRATT
METAR KATT 281351Z AUTO 00000KT 9SM BKN075 21/18 A3005 RMK AO2
SLP167 T02060183





000
SAUS44 KEWX 281252
MTRATT
METAR KATT 281251Z AUTO 00000KT 6SM BR CLR 19/18 A3004 RMK AO2
SLP163 T01940183





000
SAUS44 KEWX 281152
MTRATT
METAR KATT 281151Z AUTO 00000KT 5SM BR CLR 19/18 A3002 RMK AO2
SLP157 T01890183 10211 20189 53005





000
SAUS44 KEWX 281052
MTRATT
METAR KATT 281051Z AUTO 00000KT 4SM BR FEW002 19/19 A3000 RMK AO2
SLP151 T01940189





000
SAUS44 KEWX 281030
MTRATT
SPECI KATT 281029Z AUTO 00000KT 3SM BR SCT002 19/19 A3000 RMK AO2
T01940189





000
SAUS44 KEWX 280952
MTRATT
METAR KATT 280951Z AUTO 00000KT 5SM BR CLR 19/19 A3000 RMK AO2
SLP148 T01940189





000
SAUS44 KEWX 280852
MTRATT
METAR KATT 280851Z AUTO 32004KT 6SM BR CLR 20/19 A3001 RMK AO2
SLP151 T02000189 55004





000
SAUS44 KEWX 280758 COR
MTRATT
METAR KATT 280751Z AUTO 00000KT 6SM BR CLR 19/19 A3001 RMK AO2
SLP151 T01940189





000
SAUS44 KEWX 280652
MTRATT
METAR KATT 280651Z AUTO 00000KT 7SM CLR 21/19 A3001 RMK AO2 SLP153
T02060194





000
SAUS44 KEWX 280552
MTRATT
METAR KATT 280551Z AUTO 32003KT 8SM CLR 21/19 A3002 RMK AO2 SLP154
T02110194 10256 20200 402670200 58006





000
SAUS44 KEWX 280452
MTRATT
METAR KATT 280451Z AUTO 00000KT 8SM CLR 21/19 A3002 RMK AO2 SLP158
T02060194





    US Dept of Commerce
    National Oceanic and Atmospheric Administration
    National Weather Service
    1325 East West Highway
    Silver Spring, MD 20910
    Page Author: NWS Internet Services Team
Disclaimer
Information Quality
Credits
Glossary
Privacy Policy
Freedom of Information Act (FOIA)
About Us
Career Opportunities